sensor_id;sensor_type;location;lat;lon;timestamp;P1;durP1;ratioP1;P2;durP2;ratioP2
11076;SDS011;5591;42.626;23.380;2022-11-18T00:01:06;17.57;;;13.30;;
11076;SDS011;5591;42.626;23.380;2022-11-18T00:03:34;20.53;;;14.37;;
11076;SDS011;5591;42.626;23.380;2022-11-18T00:06:01;19.47;;;14.70;;
11076;SDS011;5591;42.626;23.380;2022-11-18T00:08:28;18.10;;;15.83;;
11076;SDS011;5591;42.626;23.380;2022-11-18T00:10:55;21.73;;;17.07;;
11076;SDS011;5591;42.626;23.380;2022-11-18T00:13:22;17.40;;;14.63;;
11076;SDS011;5591;42.626;23.380;2022-11-18T00:16:09;19.43;;;15.70;;
11076;SDS011;5591;42.626;23.380;2022-11-18T00:18:37;18.13;;;15.33;;
11076;SDS011;5591;42.626;23.380;2022-11-18T00:21:06;21.43;;;16.13;;
11076;SDS011;5591;42.626;23.380;2022-11-18T00:23:35;21.93;;;17.50;;
11076;SDS011;5591;42.626;23.380;2022-11-18T00:26:02;21.10;;;16.37;;
11076;SDS011;5591;42.626;23.380;2022-11-18T00:28:29;22.53;;;15.83;;
11076;SDS011;5591;42.626;23.380;2022-11-18T00:30:59;20.50;;;16.43;;
11076;SDS011;5591;42.626;23.380;2022-11-18T00:33:29;22.00;;;16.67;;
11076;SDS011;5591;42.626;23.380;2022-11-18T00:35:57;17.67;;;14.27;;
11076;SDS011;5591;42.626;23.380;2022-11-18T00:38:24;19.93;;;14.30;;
11076;SDS011;5591;42.626;23.380;2022-11-18T00:40:57;22.97;;;15.90;;
11076;SDS011;5591;42.626;23.380;2022-11-18T00:43:25;22.40;;;15.30;;
11076;SDS011;5591;42.626;23.380;2022-11-18T00:45:51;19.30;;;15.53;;
11076;SDS011;5591;42.626;23.380;2022-11-18T00:48:18;17.33;;;11.80;;
11076;SDS011;5591;42.626;23.380;2022-11-18T00:50:47;14.57;;;12.50;;
11076;SDS011;5591;42.626;23.380;2022-11-18T00:53:14;16.73;;;14.53;;
11076;SDS011;5591;42.626;23.380;2022-11-18T00:55:41;13.97;;;12.47;;
11076;SDS011;5591;42.626;23.380;2022-11-18T00:58:08;15.37;;;12.60;;
11076;SDS011;5591;42.626;23.380;2022-11-18T01:00:38;16.33;;;13.40;;
11076;SDS011;5591;42.626;23.380;2022-11-18T01:03:05;14.57;;;11.83;;
11076;SDS011;5591;42.626;23.380;2022-11-18T01:05:32;19.93;;;13.03;;
11076;SDS011;5591;42.626;23.380;2022-11-18T01:08:00;18.03;;;13.03;;
11076;SDS011;5591;42.626;23.380;2022-11-18T01:10:27;15.97;;;12.87;;
11076;SDS011;5591;42.626;23.380;2022-11-18T01:12:54;17.83;;;13.60;;
11076;SDS011;5591;42.626;23.380;2022-11-18T01:15:39;15.53;;;13.20;;
11076;SDS011;5591;42.626;23.380;2022-11-18T01:18:07;14.80;;;13.20;;
11076;SDS011;5591;42.626;23.380;2022-11-18T01:20:34;14.93;;;13.00;;
11076;SDS011;5591;42.626;23.380;2022-11-18T01:23:03;18.07;;;15.13;;
11076;SDS011;5591;42.626;23.380;2022-11-18T01:25:30;20.77;;;14.33;;
11076;SDS011;5591;42.626;23.380;2022-11-18T01:27:57;17.73;;;14.50;;
11076;SDS011;5591;42.626;23.380;2022-11-18T01:30:24;19.73;;;14.00;;
11076;SDS011;5591;42.626;23.380;2022-11-18T01:32:50;22.17;;;15.43;;
11076;SDS011;5591;42.626;23.380;2022-11-18T01:35:17;18.50;;;15.83;;
11076;SDS011;5591;42.626;23.380;2022-11-18T01:37:44;16.30;;;13.77;;
11076;SDS011;5591;42.626;23.380;2022-11-18T03:28:24;22.37;;;17.43;;
11076;SDS011;5591;42.626;23.380;2022-11-18T03:30:57;22.57;;;17.70;;
11076;SDS011;5591;42.626;23.380;2022-11-18T03:33:27;23.13;;;17.90;;
11076;SDS011;5591;42.626;23.380;2022-11-18T03:36:00;22.97;;;18.20;;
11076;SDS011;5591;42.626;23.380;2022-11-18T03:38:32;23.23;;;19.30;;
11076;SDS011;5591;42.626;23.380;2022-11-18T03:41:13;21.63;;;17.87;;
11076;SDS011;5591;42.626;23.380;2022-11-18T03:43:45;22.43;;;17.47;;
11076;SDS011;5591;42.626;23.380;2022-11-18T03:46:15;25.57;;;19.17;;
11076;SDS011;5591;42.626;23.380;2022-11-18T03:48:46;20.43;;;15.97;;
11076;SDS011;5591;42.626;23.380;2022-11-18T03:51:16;19.80;;;16.70;;
11076;SDS011;5591;42.626;23.380;2022-11-18T03:53:50;25.07;;;17.13;;
11076;SDS011;5591;42.626;23.380;2022-11-18T03:56:22;24.63;;;20.13;;
11076;SDS011;5591;42.626;23.380;2022-11-18T03:58:58;22.93;;;18.80;;
11076;SDS011;5591;42.626;23.380;2022-11-18T04:01:30;22.63;;;19.03;;
11076;SDS011;5591;42.626;23.380;2022-11-18T04:04:01;27.83;;;20.00;;
11076;SDS011;5591;42.626;23.380;2022-11-18T04:06:29;23.60;;;18.80;;
11076;SDS011;5591;42.626;23.380;2022-11-18T04:09:02;42.97;;;23.07;;
11076;SDS011;5591;42.626;23.380;2022-11-18T04:11:37;33.03;;;21.57;;
11076;SDS011;5591;42.626;23.380;2022-11-18T04:14:30;28.20;;;20.53;;
11076;SDS011;5591;42.626;23.380;2022-11-18T04:16:58;30.70;;;19.70;;
11076;SDS011;5591;42.626;23.380;2022-11-18T04:19:25;29.67;;;22.07;;
11076;SDS011;5591;42.626;23.380;2022-11-18T04:21:53;33.80;;;21.43;;
11076;SDS011;5591;42.626;23.380;2022-11-18T04:24:20;47.00;;;22.23;;
11076;SDS011;5591;42.626;23.380;2022-11-18T04:26:47;49.10;;;22.40;;
11076;SDS011;5591;42.626;23.380;2022-11-18T04:29:13;78.87;;;23.37;;
11076;SDS011;5591;42.626;23.380;2022-11-18T04:31:42;53.87;;;23.77;;
11076;SDS011;5591;42.626;23.380;2022-11-18T04:34:08;138.10;;;26.50;;
11076;SDS011;5591;42.626;23.380;2022-11-18T04:36:35;33.63;;;22.40;;
11076;SDS011;5591;42.626;23.380;2022-11-18T04:39:02;78.87;;;26.43;;
11076;SDS011;5591;42.626;23.380;2022-11-18T04:41:29;172.57;;;29.73;;
11076;SDS011;5591;42.626;23.380;2022-11-18T04:44:13;144.63;;;28.27;;
11076;SDS011;5591;42.626;23.380;2022-11-18T04:46:42;51.37;;;24.93;;
11076;SDS011;5591;42.626;23.380;2022-11-18T04:49:10;171.57;;;33.67;;
11076;SDS011;5591;42.626;23.380;2022-11-18T04:51:38;74.73;;;55.47;;
11076;SDS011;5591;42.626;23.380;2022-11-18T04:54:04;55.00;;;35.73;;
11076;SDS011;5591;42.626;23.380;2022-11-18T04:56:31;147.13;;;32.13;;
11076;SDS011;5591;42.626;23.380;2022-11-18T04:58:58;86.43;;;28.27;;
11076;SDS011;5591;42.626;23.380;2022-11-18T05:01:26;263.30;;;37.87;;
11076;SDS011;5591;42.626;23.380;2022-11-18T05:03:55;130.47;;;28.50;;
11076;SDS011;5591;42.626;23.380;2022-11-18T05:06:22;65.33;;;27.07;;
11076;SDS011;5591;42.626;23.380;2022-11-18T05:08:49;130.57;;;32.20;;
11076;SDS011;5591;42.626;23.380;2022-11-18T05:11:16;176.10;;;32.63;;
11076;SDS011;5591;42.626;23.380;2022-11-18T05:14:00;163.20;;;34.60;;
11076;SDS011;5591;42.626;23.380;2022-11-18T05:16:27;172.27;;;33.47;;
11076;SDS011;5591;42.626;23.380;2022-11-18T05:18:55;56.87;;;28.63;;
11076;SDS011;5591;42.626;23.380;2022-11-18T05:21:22;196.03;;;28.63;;
11076;SDS011;5591;42.626;23.380;2022-11-18T05:23:49;100.40;;;26.73;;
11076;SDS011;5591;42.626;23.380;2022-11-18T05:26:16;152.70;;;30.47;;
11076;SDS011;5591;42.626;23.380;2022-11-18T05:28:42;149.70;;;31.30;;
11076;SDS011;5591;42.626;23.380;2022-11-18T05:31:10;80.73;;;30.10;;
11076;SDS011;5591;42.626;23.380;2022-11-18T05:33:38;84.47;;;29.43;;
11076;SDS011;5591;42.626;23.380;2022-11-18T05:36:08;123.33;;;29.93;;
11076;SDS011;5591;42.626;23.380;2022-11-18T05:38:37;124.50;;;35.43;;
11076;SDS011;5591;42.626;23.380;2022-11-18T05:41:04;105.40;;;30.07;;
11076;SDS011;5591;42.626;23.380;2022-11-18T05:43:32;57.20;;;27.83;;
11076;SDS011;5591;42.626;23.380;2022-11-18T05:45:59;106.67;;;31.00;;
11076;SDS011;5591;42.626;23.380;2022-11-18T05:48:26;59.47;;;28.47;;
11076;SDS011;5591;42.626;23.380;2022-11-18T05:50:54;63.07;;;30.03;;
11076;SDS011;5591;42.626;23.380;2022-11-18T05:53:23;162.00;;;29.43;;
11076;SDS011;5591;42.626;23.380;2022-11-18T05:55:54;240.80;;;34.93;;
11076;SDS011;5591;42.626;23.380;2022-11-18T05:58:25;91.13;;;31.70;;
11076;SDS011;5591;42.626;23.380;2022-11-18T06:00:53;354.77;;;42.20;;
11076;SDS011;5591;42.626;23.380;2022-11-18T06:03:24;138.03;;;31.47;;
11076;SDS011;5591;42.626;23.380;2022-11-18T06:05:54;65.70;;;30.93;;
11076;SDS011;5591;42.626;23.380;2022-11-18T06:08:24;75.93;;;33.53;;
11076;SDS011;5591;42.626;23.380;2022-11-18T06:10:57;96.93;;;28.93;;
11076;SDS011;5591;42.626;23.380;2022-11-18T06:13:25;222.60;;;35.43;;
11076;SDS011;5591;42.626;23.380;2022-11-18T06:15:56;163.93;;;29.13;;
11076;SDS011;5591;42.626;23.380;2022-11-18T06:18:27;199.60;;;30.70;;
11076;SDS011;5591;42.626;23.380;2022-11-18T06:21:01;150.53;;;32.53;;
11076;SDS011;5591;42.626;23.380;2022-11-18T06:23:32;145.43;;;35.03;;
11076;SDS011;5591;42.626;23.380;2022-11-18T06:26:00;166.97;;;32.63;;
11076;SDS011;5591;42.626;23.380;2022-11-18T06:28:28;97.67;;;30.50;;
11076;SDS011;5591;42.626;23.380;2022-11-18T06:30:55;118.70;;;31.90;;
11076;SDS011;5591;42.626;23.380;2022-11-18T06:33:23;138.30;;;32.90;;
11076;SDS011;5591;42.626;23.380;2022-11-18T06:35:52;110.43;;;32.13;;
11076;SDS011;5591;42.626;23.380;2022-11-18T06:38:35;106.03;;;37.00;;
11076;SDS011;5591;42.626;23.380;2022-11-18T06:41:03;117.83;;;34.10;;
11076;SDS011;5591;42.626;23.380;2022-11-18T06:43:39;131.93;;;35.80;;
11076;SDS011;5591;42.626;23.380;2022-11-18T06:46:15;379.37;;;43.83;;
11076;SDS011;5591;42.626;23.380;2022-11-18T06:49:02;76.70;;;31.47;;
11076;SDS011;5591;42.626;23.380;2022-11-18T06:51:29;124.27;;;32.03;;
11076;SDS011;5591;42.626;23.380;2022-11-18T06:53:58;244.63;;;32.90;;
11076;SDS011;5591;42.626;23.380;2022-11-18T06:56:25;198.53;;;32.47;;
11076;SDS011;5591;42.626;23.380;2022-11-18T06:58:52;116.97;;;32.50;;
11076;SDS011;5591;42.626;23.380;2022-11-18T07:01:20;86.97;;;30.30;;
11076;SDS011;5591;42.626;23.380;2022-11-18T07:03:49;406.17;;;28.47;;
11076;SDS011;5591;42.626;23.380;2022-11-18T07:06:17;298.53;;;28.30;;
11076;SDS011;5591;42.626;23.380;2022-11-18T07:08:45;127.13;;;28.00;;
11076;SDS011;5591;42.626;23.380;2022-11-18T07:11:14;86.97;;;27.70;;
11076;SDS011;5591;42.626;23.380;2022-11-18T07:13:45;96.87;;;32.00;;
11076;SDS011;5591;42.626;23.380;2022-11-18T07:16:13;127.43;;;32.23;;
11076;SDS011;5591;42.626;23.380;2022-11-18T07:18:41;100.50;;;29.53;;
11076;SDS011;5591;42.626;23.380;2022-11-18T07:21:09;79.93;;;38.10;;
11076;SDS011;5591;42.626;23.380;2022-11-18T07:23:37;79.03;;;38.90;;
11076;SDS011;5591;42.626;23.380;2022-11-18T07:26:04;91.47;;;50.50;;
11076;SDS011;5591;42.626;23.380;2022-11-18T07:28:34;67.73;;;35.63;;
11076;SDS011;5591;42.626;23.380;2022-11-18T07:31:01;66.13;;;31.10;;
11076;SDS011;5591;42.626;23.380;2022-11-18T07:33:28;86.33;;;26.20;;
11076;SDS011;5591;42.626;23.380;2022-11-18T07:35:58;65.27;;;26.07;;
11076;SDS011;5591;42.626;23.380;2022-11-18T07:38:26;90.10;;;25.33;;
11076;SDS011;5591;42.626;23.380;2022-11-18T07:40:53;64.03;;;25.43;;
11076;SDS011;5591;42.626;23.380;2022-11-18T07:43:20;107.53;;;27.83;;
11076;SDS011;5591;42.626;23.380;2022-11-18T07:45:49;59.13;;;27.27;;
11076;SDS011;5591;42.626;23.380;2022-11-18T07:48:15;47.67;;;23.53;;
11076;SDS011;5591;42.626;23.380;2022-11-18T07:50:42;46.77;;;24.57;;
11076;SDS011;5591;42.626;23.380;2022-11-18T07:53:09;40.87;;;20.53;;
11076;SDS011;5591;42.626;23.380;2022-11-18T07:55:36;32.50;;;19.20;;
11076;SDS011;5591;42.626;23.380;2022-11-18T07:58:02;30.97;;;18.83;;
11076;SDS011;5591;42.626;23.380;2022-11-18T08:00:29;101.67;;;26.27;;
11076;SDS011;5591;42.626;23.380;2022-11-18T08:02:57;43.93;;;22.87;;
11076;SDS011;5591;42.626;23.380;2022-11-18T08:05:24;34.87;;;20.93;;
11076;SDS011;5591;42.626;23.380;2022-11-18T08:07:51;37.97;;;21.17;;
11076;SDS011;5591;42.626;23.380;2022-11-18T08:10:18;37.10;;;20.57;;
11076;SDS011;5591;42.626;23.380;2022-11-18T08:12:44;40.07;;;18.93;;
11076;SDS011;5591;42.626;23.380;2022-11-18T08:15:11;63.33;;;22.47;;
11076;SDS011;5591;42.626;23.380;2022-11-18T08:17:38;40.53;;;23.97;;
11076;SDS011;5591;42.626;23.380;2022-11-18T08:20:06;31.57;;;19.77;;
11076;SDS011;5591;42.626;23.380;2022-11-18T08:22:34;30.17;;;20.27;;
11076;SDS011;5591;42.626;23.380;2022-11-18T08:25:00;30.57;;;18.97;;
11076;SDS011;5591;42.626;23.380;2022-11-18T08:27:27;27.90;;;19.80;;
11076;SDS011;5591;42.626;23.380;2022-11-18T08:29:54;28.97;;;19.30;;
11076;SDS011;5591;42.626;23.380;2022-11-18T08:32:21;28.50;;;19.63;;
11076;SDS011;5591;42.626;23.380;2022-11-18T08:34:48;33.73;;;23.83;;
11076;SDS011;5591;42.626;23.380;2022-11-18T08:37:17;26.27;;;16.47;;
11076;SDS011;5591;42.626;23.380;2022-11-18T08:39:44;20.30;;;15.57;;
11076;SDS011;5591;42.626;23.380;2022-11-18T08:42:10;25.27;;;15.73;;
11076;SDS011;5591;42.626;23.380;2022-11-18T08:44:37;16.77;;;13.43;;
11076;SDS011;5591;42.626;23.380;2022-11-18T08:47:04;19.00;;;12.73;;
11076;SDS011;5591;42.626;23.380;2022-11-18T08:49:31;15.00;;;10.67;;
11076;SDS011;5591;42.626;23.380;2022-11-18T08:51:57;13.90;;;11.03;;
11076;SDS011;5591;42.626;23.380;2022-11-18T08:54:26;16.50;;;12.20;;
11076;SDS011;5591;42.626;23.380;2022-11-18T08:56:52;12.97;;;9.93;;
11076;SDS011;5591;42.626;23.380;2022-11-18T08:59:19;15.80;;;12.23;;
11076;SDS011;5591;42.626;23.380;2022-11-18T09:01:46;20.17;;;15.30;;
11076;SDS011;5591;42.626;23.380;2022-11-18T09:04:13;24.30;;;19.57;;
11076;SDS011;5591;42.626;23.380;2022-11-18T09:06:40;25.13;;;18.67;;
11076;SDS011;5591;42.626;23.380;2022-11-18T09:09:06;24.03;;;17.50;;
11076;SDS011;5591;42.626;23.380;2022-11-18T09:11:36;23.30;;;15.97;;
11076;SDS011;5591;42.626;23.380;2022-11-18T09:14:04;22.37;;;16.37;;
11076;SDS011;5591;42.626;23.380;2022-11-18T09:16:32;21.73;;;16.93;;
11076;SDS011;5591;42.626;23.380;2022-11-18T09:19:00;20.70;;;15.27;;
11076;SDS011;5591;42.626;23.380;2022-11-18T09:21:27;21.57;;;15.57;;
11076;SDS011;5591;42.626;23.380;2022-11-18T09:23:54;24.63;;;16.70;;
11076;SDS011;5591;42.626;23.380;2022-11-18T09:26:21;26.80;;;17.07;;
11076;SDS011;5591;42.626;23.380;2022-11-18T09:28:51;19.00;;;15.10;;
11076;SDS011;5591;42.626;23.380;2022-11-18T09:31:19;21.83;;;15.77;;
11076;SDS011;5591;42.626;23.380;2022-11-18T09:33:45;25.90;;;17.13;;
11076;SDS011;5591;42.626;23.380;2022-11-18T09:36:14;27.27;;;17.43;;
11076;SDS011;5591;42.626;23.380;2022-11-18T09:38:42;24.93;;;17.07;;
11076;SDS011;5591;42.626;23.380;2022-11-18T09:41:14;27.07;;;17.80;;
11076;SDS011;5591;42.626;23.380;2022-11-18T09:43:52;32.17;;;20.23;;
11076;SDS011;5591;42.626;23.380;2022-11-18T09:46:29;35.93;;;22.20;;
11076;SDS011;5591;42.626;23.380;2022-11-18T09:49:07;35.37;;;22.70;;
11076;SDS011;5591;42.626;23.380;2022-11-18T09:51:40;58.23;;;46.40;;
11076;SDS011;5591;42.626;23.380;2022-11-18T09:54:09;55.90;;;39.40;;
11076;SDS011;5591;42.626;23.380;2022-11-18T09:56:37;40.43;;;26.20;;
11076;SDS011;5591;42.626;23.380;2022-11-18T09:59:08;36.03;;;22.97;;
11076;SDS011;5591;42.626;23.380;2022-11-18T10:01:39;35.20;;;23.10;;
11076;SDS011;5591;42.626;23.380;2022-11-18T10:04:11;31.03;;;21.33;;
11076;SDS011;5591;42.626;23.380;2022-11-18T10:06:39;30.17;;;21.00;;
11076;SDS011;5591;42.626;23.380;2022-11-18T10:09:09;28.70;;;20.70;;
11076;SDS011;5591;42.626;23.380;2022-11-18T10:11:45;33.40;;;21.90;;
11076;SDS011;5591;42.626;23.380;2022-11-18T10:14:40;33.47;;;23.00;;
11076;SDS011;5591;42.626;23.380;2022-11-18T10:17:19;44.47;;;26.30;;
11076;SDS011;5591;42.626;23.380;2022-11-18T10:20:01;33.47;;;23.40;;
11076;SDS011;5591;42.626;23.380;2022-11-18T10:22:38;38.13;;;25.77;;
11076;SDS011;5591;42.626;23.380;2022-11-18T10:25:12;40.40;;;23.53;;
11076;SDS011;5591;42.626;23.380;2022-11-18T10:27:41;36.17;;;24.10;;
11076;SDS011;5591;42.626;23.380;2022-11-18T10:30:12;40.33;;;26.43;;
11076;SDS011;5591;42.626;23.380;2022-11-18T10:32:57;38.33;;;26.53;;
11076;SDS011;5591;42.626;23.380;2022-11-18T10:35:27;37.23;;;20.90;;
11076;SDS011;5591;42.626;23.380;2022-11-18T10:37:59;22.00;;;15.20;;
11076;SDS011;5591;42.626;23.380;2022-11-18T10:40:28;14.63;;;10.20;;
11076;SDS011;5591;42.626;23.380;2022-11-18T10:42:56;10.40;;;6.50;;
11076;SDS011;5591;42.626;23.380;2022-11-18T10:45:25;3.73;;;2.63;;
11076;SDS011;5591;42.626;23.380;2022-11-18T10:47:58;4.07;;;2.20;;
11076;SDS011;5591;42.626;23.380;2022-11-18T10:50:28;2.37;;;1.80;;
11076;SDS011;5591;42.626;23.380;2022-11-18T10:52:59;4.47;;;2.20;;
11076;SDS011;5591;42.626;23.380;2022-11-18T10:55:26;6.60;;;2.17;;
11076;SDS011;5591;42.626;23.380;2022-11-18T10:57:55;21.30;;;14.53;;
11076;SDS011;5591;42.626;23.380;2022-11-18T11:03:19;22.27;;;15.50;;
11076;SDS011;5591;42.626;23.380;2022-11-18T11:06:03;25.10;;;17.10;;
11076;SDS011;5591;42.626;23.380;2022-11-18T11:08:53;23.20;;;15.73;;
11076;SDS011;5591;42.626;23.380;2022-11-18T11:11:23;21.07;;;14.30;;
11076;SDS011;5591;42.626;23.380;2022-11-18T11:13:53;26.97;;;16.00;;
11076;SDS011;5591;42.626;23.380;2022-11-18T11:16:26;30.17;;;20.27;;
11076;SDS011;5591;42.626;23.380;2022-11-18T11:18:57;32.13;;;21.83;;
11076;SDS011;5591;42.626;23.380;2022-11-18T11:21:27;37.60;;;24.03;;
11076;SDS011;5591;42.626;23.380;2022-11-18T11:23:55;31.17;;;23.30;;
11076;SDS011;5591;42.626;23.380;2022-11-18T11:26:25;31.80;;;22.40;;
11076;SDS011;5591;42.626;23.380;2022-11-18T11:28:59;32.57;;;18.77;;
11076;SDS011;5591;42.626;23.380;2022-11-18T11:31:37;33.87;;;18.93;;
11076;SDS011;5591;42.626;23.380;2022-11-18T11:34:15;25.37;;;15.43;;
11076;SDS011;5591;42.626;23.380;2022-11-18T11:36:52;25.03;;;15.63;;
11076;SDS011;5591;42.626;23.380;2022-11-18T11:42:31;36.10;;;22.93;;
11076;SDS011;5591;42.626;23.380;2022-11-18T11:45:14;44.03;;;28.83;;
11076;SDS011;5591;42.626;23.380;2022-11-18T11:47:58;38.57;;;26.70;;
11076;SDS011;5591;42.626;23.380;2022-11-18T11:50:40;42.93;;;26.53;;
11076;SDS011;5591;42.626;23.380;2022-11-18T11:53:20;36.10;;;23.37;;
11076;SDS011;5591;42.626;23.380;2022-11-18T11:56:07;30.93;;;21.37;;
11076;SDS011;5591;42.626;23.380;2022-11-18T11:58:43;33.53;;;20.90;;
11076;SDS011;5591;42.626;23.380;2022-11-18T12:01:28;29.17;;;18.33;;
11076;SDS011;5591;42.626;23.380;2022-11-18T12:04:03;34.57;;;21.30;;
11076;SDS011;5591;42.626;23.380;2022-11-18T12:06:39;35.67;;;20.23;;
11076;SDS011;5591;42.626;23.380;2022-11-18T12:09:10;32.13;;;19.93;;
11076;SDS011;5591;42.626;23.380;2022-11-18T12:11:42;29.77;;;16.97;;
11076;SDS011;5591;42.626;23.380;2022-11-18T12:14:19;30.53;;;17.47;;
11076;SDS011;5591;42.626;23.380;2022-11-18T12:16:55;26.47;;;15.90;;
11076;SDS011;5591;42.626;23.380;2022-11-18T12:19:35;21.20;;;14.70;;
11076;SDS011;5591;42.626;23.380;2022-11-18T12:22:03;23.40;;;14.00;;
11076;SDS011;5591;42.626;23.380;2022-11-18T12:24:32;18.13;;;11.83;;
11076;SDS011;5591;42.626;23.380;2022-11-18T12:27:02;24.70;;;16.27;;
11076;SDS011;5591;42.626;23.380;2022-11-18T12:29:40;26.83;;;17.73;;
11076;SDS011;5591;42.626;23.380;2022-11-18T12:32:26;25.43;;;16.00;;
11076;SDS011;5591;42.626;23.380;2022-11-18T12:35:00;26.10;;;16.90;;
11076;SDS011;5591;42.626;23.380;2022-11-18T12:37:41;29.83;;;17.13;;
11076;SDS011;5591;42.626;23.380;2022-11-18T12:40:32;31.77;;;19.10;;
11076;SDS011;5591;42.626;23.380;2022-11-18T12:43:04;24.73;;;16.80;;
11076;SDS011;5591;42.626;23.380;2022-11-18T12:45:54;25.20;;;15.30;;
11076;SDS011;5591;42.626;23.380;2022-11-18T12:48:26;26.77;;;15.03;;
11076;SDS011;5591;42.626;23.380;2022-11-18T12:50:57;23.47;;;15.37;;
11076;SDS011;5591;42.626;23.380;2022-11-18T12:53:29;25.93;;;15.07;;
11076;SDS011;5591;42.626;23.380;2022-11-18T12:56:08;24.30;;;16.77;;
11076;SDS011;5591;42.626;23.380;2022-11-18T12:58:37;22.13;;;13.87;;
11076;SDS011;5591;42.626;23.380;2022-11-18T13:01:10;16.57;;;12.10;;
11076;SDS011;5591;42.626;23.380;2022-11-18T13:03:38;19.17;;;10.90;;
11076;SDS011;5591;42.626;23.380;2022-11-18T13:06:11;16.80;;;11.43;;
11076;SDS011;5591;42.626;23.380;2022-11-18T13:08:42;17.00;;;12.57;;
11076;SDS011;5591;42.626;23.380;2022-11-18T13:11:12;22.90;;;11.50;;
11076;SDS011;5591;42.626;23.380;2022-11-18T13:13:58;17.60;;;11.60;;
11076;SDS011;5591;42.626;23.380;2022-11-18T13:16:44;19.83;;;12.27;;
11076;SDS011;5591;42.626;23.380;2022-11-18T13:19:28;21.77;;;12.23;;
11076;SDS011;5591;42.626;23.380;2022-11-18T13:21:57;17.63;;;12.47;;
11076;SDS011;5591;42.626;23.380;2022-11-18T13:24:43;16.77;;;11.40;;
11076;SDS011;5591;42.626;23.380;2022-11-18T13:27:15;19.50;;;12.20;;
11076;SDS011;5591;42.626;23.380;2022-11-18T13:29:55;21.03;;;11.70;;
11076;SDS011;5591;42.626;23.380;2022-11-18T13:32:29;18.20;;;9.47;;
11076;SDS011;5591;42.626;23.380;2022-11-18T13:34:56;18.90;;;9.23;;
11076;SDS011;5591;42.626;23.380;2022-11-18T13:37:32;11.97;;;4.80;;
11076;SDS011;5591;42.626;23.380;2022-11-18T13:39:59;7.50;;;2.77;;
11076;SDS011;5591;42.626;23.380;2022-11-18T13:42:27;4.70;;;2.73;;
11076;SDS011;5591;42.626;23.380;2022-11-18T13:44:56;4.90;;;2.80;;
11076;SDS011;5591;42.626;23.380;2022-11-18T13:47:34;7.20;;;3.00;;
11076;SDS011;5591;42.626;23.380;2022-11-18T14:21:30;6.43;;;2.07;;
11076;SDS011;5591;42.626;23.380;2022-11-18T14:23:59;6.00;;;2.23;;
11076;SDS011;5591;42.626;23.380;2022-11-18T14:26:27;5.27;;;2.20;;
11076;SDS011;5591;42.626;23.380;2022-11-18T14:28:55;4.63;;;2.17;;
11076;SDS011;5591;42.626;23.380;2022-11-18T14:31:24;2.77;;;1.83;;
11076;SDS011;5591;42.626;23.380;2022-11-18T14:34:12;3.83;;;2.23;;
11076;SDS011;5591;42.626;23.380;2022-11-18T14:36:44;3.03;;;2.00;;
11076;SDS011;5591;42.626;23.380;2022-11-18T14:39:12;3.53;;;3.10;;
11076;SDS011;5591;42.626;23.380;2022-11-18T14:41:47;6.47;;;3.07;;
11076;SDS011;5591;42.626;23.380;2022-11-18T14:44:14;4.90;;;2.53;;
11076;SDS011;5591;42.626;23.380;2022-11-18T14:46:42;6.40;;;4.40;;
11076;SDS011;5591;42.626;23.380;2022-11-18T14:49:11;5.50;;;3.30;;
11076;SDS011;5591;42.626;23.380;2022-11-18T14:51:40;4.67;;;2.93;;
11076;SDS011;5591;42.626;23.380;2022-11-18T14:54:11;3.30;;;2.27;;
11076;SDS011;5591;42.626;23.380;2022-11-18T14:56:39;7.13;;;2.10;;
11076;SDS011;5591;42.626;23.380;2022-11-18T14:59:09;10.10;;;8.73;;
11076;SDS011;5591;42.626;23.380;2022-11-18T15:01:37;4.17;;;3.00;;
11076;SDS011;5591;42.626;23.380;2022-11-18T15:04:04;3.23;;;2.10;;
11076;SDS011;5591;42.626;23.380;2022-11-18T15:06:31;4.93;;;1.90;;
11076;SDS011;5591;42.626;23.380;2022-11-18T15:08:58;3.30;;;1.70;;
11076;SDS011;5591;42.626;23.380;2022-11-18T15:11:26;3.67;;;2.13;;
11076;SDS011;5591;42.626;23.380;2022-11-18T15:13:53;2.97;;;1.77;;
11076;SDS011;5591;42.626;23.380;2022-11-18T15:16:21;2.00;;;1.80;;
11076;SDS011;5591;42.626;23.380;2022-11-18T15:18:49;17.93;;;16.03;;
11076;SDS011;5591;42.626;23.380;2022-11-18T15:21:17;8.80;;;8.00;;
11076;SDS011;5591;42.626;23.380;2022-11-18T15:23:44;5.40;;;2.73;;
11076;SDS011;5591;42.626;23.380;2022-11-18T15:26:14;5.63;;;2.30;;
11076;SDS011;5591;42.626;23.380;2022-11-18T15:28:46;3.50;;;2.00;;
11076;SDS011;5591;42.626;23.380;2022-11-18T15:31:13;3.40;;;2.03;;
11076;SDS011;5591;42.626;23.380;2022-11-18T15:33:40;3.63;;;2.00;;
11076;SDS011;5591;42.626;23.380;2022-11-18T15:36:09;3.53;;;2.10;;
11076;SDS011;5591;42.626;23.380;2022-11-18T15:38:38;4.37;;;2.40;;
11076;SDS011;5591;42.626;23.380;2022-11-18T15:41:05;3.27;;;2.50;;
11076;SDS011;5591;42.626;23.380;2022-11-18T15:43:32;4.10;;;2.63;;
11076;SDS011;5591;42.626;23.380;2022-11-18T15:46:00;4.27;;;2.40;;
11076;SDS011;5591;42.626;23.380;2022-11-18T15:48:27;5.70;;;2.50;;
11076;SDS011;5591;42.626;23.380;2022-11-18T15:50:53;3.70;;;2.50;;
11076;SDS011;5591;42.626;23.380;2022-11-18T15:53:20;3.90;;;2.60;;
11076;SDS011;5591;42.626;23.380;2022-11-18T15:55:47;3.83;;;2.40;;
11076;SDS011;5591;42.626;23.380;2022-11-18T15:58:14;26.07;;;22.63;;
11076;SDS011;5591;42.626;23.380;2022-11-18T16:00:40;10.73;;;8.00;;
11076;SDS011;5591;42.626;23.380;2022-11-18T16:03:09;3.33;;;2.97;;
11076;SDS011;5591;42.626;23.380;2022-11-18T16:05:35;4.37;;;3.30;;
11076;SDS011;5591;42.626;23.380;2022-11-18T16:08:02;6.80;;;4.23;;
11076;SDS011;5591;42.626;23.380;2022-11-18T16:10:29;4.33;;;3.40;;
11076;SDS011;5591;42.626;23.380;2022-11-18T16:13:14;5.33;;;3.97;;
11076;SDS011;5591;42.626;23.380;2022-11-18T16:15:46;8.10;;;4.37;;
11076;SDS011;5591;42.626;23.380;2022-11-18T16:18:14;7.20;;;6.20;;
11076;SDS011;5591;42.626;23.380;2022-11-18T16:20:43;6.30;;;4.67;;
11076;SDS011;5591;42.626;23.380;2022-11-18T16:23:10;6.40;;;4.00;;
11076;SDS011;5591;42.626;23.380;2022-11-18T16:25:41;10.67;;;9.10;;
11076;SDS011;5591;42.626;23.380;2022-11-18T16:28:09;3.40;;;2.77;;
11076;SDS011;5591;42.626;23.380;2022-11-18T16:30:35;4.30;;;2.30;;
11076;SDS011;5591;42.626;23.380;2022-11-18T16:33:21;4.40;;;2.50;;
11076;SDS011;5591;42.626;23.380;2022-11-18T16:35:48;5.53;;;2.90;;
11076;SDS011;5591;42.626;23.380;2022-11-18T16:38:15;5.60;;;3.10;;
11076;SDS011;5591;42.626;23.380;2022-11-18T16:40:42;5.03;;;3.33;;
11076;SDS011;5591;42.626;23.380;2022-11-18T16:43:08;3.03;;;2.63;;
11076;SDS011;5591;42.626;23.380;2022-11-18T16:45:36;4.20;;;3.23;;
11076;SDS011;5591;42.626;23.380;2022-11-18T16:48:03;4.97;;;3.07;;
11076;SDS011;5591;42.626;23.380;2022-11-18T16:50:31;4.43;;;3.37;;
11076;SDS011;5591;42.626;23.380;2022-11-18T16:52:58;4.60;;;2.83;;
11076;SDS011;5591;42.626;23.380;2022-11-18T16:55:25;4.33;;;3.00;;
11076;SDS011;5591;42.626;23.380;2022-11-18T16:57:52;4.70;;;3.10;;
11076;SDS011;5591;42.626;23.380;2022-11-18T17:00:19;2.63;;;2.43;;
11076;SDS011;5591;42.626;23.380;2022-11-18T17:02:46;3.03;;;2.50;;
11076;SDS011;5591;42.626;23.380;2022-11-18T17:05:12;2.50;;;2.30;;
11076;SDS011;5591;42.626;23.380;2022-11-18T17:07:40;5.07;;;3.90;;
11076;SDS011;5591;42.626;23.380;2022-11-18T17:10:08;5.77;;;3.93;;